Time;durP1;ratioP1;P1;durP2;ratioP2;P2;SDS_P1;SDS_P2;PMS_P1;PMS_P2;Temp;Humidity;BMP_temperature;BMP_pressure;BME280_temperature;BME280_humidity;BME280_pressure;Samples;Min_cycle;Max_cycle;Signal;HPM_P1;HPM_P2
2022/06/02 00:01:12;;;;;;;9.18;5.78;;;;;;;;;;5110486;28;20048;-86
2022/06/02 00:03:42;;;;;;;10.45;6.20;;;;;;;;;;5094151;28;20039;-88
2022/06/02 00:06:11;;;;;;;8.20;5.28;;;;;;;;;;5091807;28;20043;-88
2022/06/02 00:08:40;;;;;;;10.20;5.47;;;;;;;;;;5094141;28;20086;-88
2022/06/02 00:11:13;;;;;;;8.27;5.88;;;;;;;;;;5091884;28;20040;-87
2022/06/02 00:13:57;;;;;;;10.52;6.03;;;;;;;;;;5093933;28;20114;-86
2022/06/02 00:16:50;;;;;;;8.68;5.40;;;;;;;;;;5093994;28;20032;-84
2022/06/02 00:19:29;;;;;;;9.90;5.32;;;;;;;;;;5090190;28;20047;-86
2022/06/02 00:22:03;;;;;;;8.77;5.75;;;;;;;;;;5092920;28;20050;-86
2022/06/02 00:24:35;;;;;;;11.85;6.10;;;;;;;;;;5091483;28;20547;-85
2022/06/02 00:27:14;;;;;;;14.05;6.47;;;;;;;;;;5093870;28;20028;-84
2022/06/02 00:29:50;;;;;;;13.75;5.97;;;;;;;;;;5093493;28;20032;-84
2022/06/02 00:32:35;;;;;;;10.07;6.00;;;;;;;;;;5093736;28;20035;-84
2022/06/02 00:35:20;;;;;;;9.52;5.40;;;;;;;;;;5093219;28;20499;-85
2022/06/02 00:37:55;;;;;;;9.85;6.13;;;;;;;;;;5091012;28;20128;-84
2022/06/02 00:40:22;;;;;;;10.65;5.70;;;;;;;;;;5093531;28;20051;-85
2022/06/02 00:42:54;;;;;;;12.13;7.22;;;;;;;;;;5093087;28;20043;-84
2022/06/02 00:45:21;;;;;;;10.13;6.18;;;;;;;;;;5093366;28;20120;-84
2022/06/02 00:48:06;;;;;;;10.95;6.43;;;;;;;;;;5110464;28;20042;-86
2022/06/02 00:50:35;;;;;;;9.60;5.88;;;;;;;;;;5092049;28;20513;-86
2022/06/02 00:53:04;;;;;;;10.32;5.97;;;;;;;;;;5093318;28;20038;-86
2022/06/02 00:58:42;;;;;;;12.07;7.35;;;;;;;;;;5107674;28;20471;-84
2022/06/02 01:01:13;;;;;;;10.23;6.60;;;;;;;;;;5093634;28;20394;-85
2022/06/02 01:03:42;;;;;;;10.27;6.45;;;;;;;;;;5093883;28;20040;-84
2022/06/02 01:06:23;;;;;;;15.45;7.25;;;;;;;;;;5110383;28;20418;-84
2022/06/02 01:09:07;;;;;;;11.90;7.07;;;;;;;;;;5093904;28;20039;-84
2022/06/02 01:11:33;;;;;;;10.98;6.55;;;;;;;;;;5093669;28;20072;-86
2022/06/02 01:14:14;;;;;;;11.23;7.18;;;;;;;;;;5093643;28;20067;-86
2022/06/02 01:16:40;;;;;;;;;;;;;;;;;;5111449;28;20046;-85
2022/06/02 01:19:18;;;;;;;11.23;6.97;;;;;;;;;;5093611;28;19920;-83
2022/06/02 01:21:44;;;;;;;12.45;7.38;;;;;;;;;;5093461;28;20035;-83
2022/06/02 01:24:10;;;;;;;12.95;7.97;;;;;;;;;;5093476;28;20398;-84
2022/06/02 01:26:42;;;;;;;11.20;7.22;;;;;;;;;;5093674;28;20124;-85
2022/06/02 01:29:19;;;;;;;14.50;7.35;;;;;;;;;;5093410;28;20031;-84
2022/06/02 01:31:52;;;;;;;14.43;7.97;;;;;;;;;;5093563;28;20035;-86
2022/06/02 01:34:18;;;;;;;12.52;7.47;;;;;;;;;;5093417;28;20042;-86
2022/06/02 01:36:50;;;;;;;12.45;7.57;;;;;;;;;;5093681;28;20039;-85
2022/06/02 01:39:38;;;;;;;11.82;7.72;;;;;;;;;;5093431;28;20048;-85
2022/06/02 01:42:10;;;;;;;13.45;8.38;;;;;;;;;;5093713;28;20044;-84
2022/06/02 01:44:39;;;;;;;14.05;8.05;;;;;;;;;;5093264;28;20039;-85
2022/06/02 01:47:14;;;;;;;15.38;8.25;;;;;;;;;;5093418;28;20042;-82
2022/06/02 01:49:49;;;;;;;13.48;7.53;;;;;;;;;;5093204;28;20040;-85
2022/06/02 01:52:42;;;;;;;14.20;7.80;;;;;;;;;;5093124;28;20536;-85
2022/06/02 01:55:11;;;;;;;14.70;8.10;;;;;;;;;;5096116;28;20054;-86
2022/06/02 01:57:43;;;;;;;13.07;7.93;;;;;;;;;;5097107;28;20044;-85
2022/06/02 02:00:14;;;;;;;14.07;8.73;;;;;;;;;;5096935;28;20376;-85
2022/06/02 02:02:59;;;;;;;13.52;8.35;;;;;;;;;;5097052;28;20039;-85
2022/06/02 02:05:28;;;;;;;13.68;8.38;;;;;;;;;;5096643;28;20097;-85
2022/06/02 02:08:12;;;;;;;11.40;7.95;;;;;;;;;;5113913;28;20043;-84
2022/06/02 02:10:53;;;;;;;13.70;8.95;;;;;;;;;;5096221;28;20032;-84
2022/06/02 02:13:54;;;;;;;14.10;7.80;;;;;;;;;;5096886;28;20153;-84
2022/06/02 02:16:37;;;;;;;18.92;8.50;;;;;;;;;;5038184;28;20040;-85
2022/06/02 02:19:22;;;;;;;13.50;7.80;;;;;;;;;;5091681;28;20141;-85
2022/06/02 02:21:55;;;;;;;14.80;8.82;;;;;;;;;;5096574;28;20047;-84
2022/06/02 02:24:45;;;;;;;14.48;8.68;;;;;;;;;;5113203;28;20122;-84
2022/06/02 02:27:13;;;;;;;15.00;7.65;;;;;;;;;;5068184;28;20051;-84
2022/06/02 02:29:39;;;;;;;13.63;7.75;;;;;;;;;;5096409;28;20126;-83
2022/06/02 02:32:24;;;;;;;15.48;8.13;;;;;;;;;;5096064;28;20071;-85
2022/06/02 02:35:09;;;;;;;14.77;7.32;;;;;;;;;;5095862;28;20100;-85
2022/06/02 02:37:59;;;;;;;13.77;7.90;;;;;;;;;;5096572;28;20040;-81
2022/06/02 02:40:38;;;;;;;13.60;7.35;;;;;;;;;;5088061;28;20058;-83
2022/06/02 02:43:09;;;;;;;13.25;7.45;;;;;;;;;;5096162;28;20043;-84
2022/06/02 02:45:46;;;;;;;14.48;7.82;;;;;;;;;;5095957;28;20035;-85
2022/06/02 02:48:23;;;;;;;11.73;7.03;;;;;;;;;;5095915;28;20040;-84
2022/06/02 02:50:57;;;;;;;12.98;7.43;;;;;;;;;;5096003;28;20505;-85
2022/06/02 02:53:32;;;;;;;13.57;7.45;;;;;;;;;;5112936;28;20368;-84
2022/06/02 02:56:07;;;;;;;15.10;7.57;;;;;;;;;;5096075;28;20047;-85
2022/06/02 02:58:38;;;;;;;13.25;7.43;;;;;;;;;;5096000;28;20035;-84
2022/06/02 03:01:24;;;;;;;13.85;8.50;;;;;;;;;;5095672;28;20043;-86
2022/06/02 03:04:02;;;;;;;12.02;7.68;;;;;;;;;;5065149;28;20097;-84
2022/06/02 03:06:31;;;;;;;12.88;8.07;;;;;;;;;;5112749;28;20039;-85
2022/06/02 03:09:05;;;;;;;16.20;8.57;;;;;;;;;;5095531;28;20043;-86
2022/06/02 03:11:39;;;;;;;17.52;8.75;;;;;;;;;;5095808;28;20032;-87
2022/06/02 03:14:14;;;;;;;17.38;8.75;;;;;;;;;;5112648;28;20120;-86
2022/06/02 03:16:40;;;;;;;13.05;7.90;;;;;;;;;;5095797;28;20042;-84
2022/06/02 03:19:29;;;;;;;16.38;8.73;;;;;;;;;;5095418;28;20036;-86
2022/06/02 03:21:58;;;;;;;16.48;8.55;;;;;;;;;;5095370;28;20491;-85
2022/06/02 03:24:44;;;;;;;18.55;9.77;;;;;;;;;;5095523;28;20039;-85
2022/06/02 03:27:29;;;;;;;13.10;8.25;;;;;;;;;;5095241;28;20035;-86
2022/06/02 03:29:58;;;;;;;15.50;7.97;;;;;;;;;;5095201;28;20429;-85
2022/06/02 03:32:43;;;;;;;16.33;9.15;;;;;;;;;;5095440;28;20118;-85
2022/06/02 03:35:23;;;;;;;19.27;9.25;;;;;;;;;;5095012;28;20448;-84
2022/06/02 03:37:49;;;;;;;15.70;9.30;;;;;;;;;;5094990;28;20050;-85
2022/06/02 03:40:18;;;;;;;17.33;9.57;;;;;;;;;;5094688;28;20407;-85
2022/06/02 03:42:51;;;;;;;16.77;9.07;;;;;;;;;;5111844;28;20047;-85
2022/06/02 03:45:36;;;;;;;17.17;9.38;;;;;;;;;;5094792;28;20058;-85
2022/06/02 03:48:02;;;;;;;14.88;8.32;;;;;;;;;;5094794;28;20031;-85
2022/06/02 03:50:40;;;;;;;14.65;8.43;;;;;;;;;;5094658;28;20415;-84
2022/06/02 03:53:12;;;;;;;14.43;8.25;;;;;;;;;;5095178;28;20074;-84
2022/06/02 03:56:00;;;;;;;18.63;9.30;;;;;;;;;;5094686;28;20398;-85
2022/06/02 03:58:43;;;;;;;17.50;8.57;;;;;;;;;;5094549;28;20047;-84
2022/06/02 04:01:12;;;;;;;16.00;8.40;;;;;;;;;;5111476;28;20135;-84
2022/06/02 04:03:41;;;;;;;17.77;9.75;;;;;;;;;;5094813;28;20126;-89
2022/06/02 04:06:14;;;;;;;18.17;9.18;;;;;;;;;;5094426;28;20069;-85
2022/06/02 04:08:46;;;;;;;16.60;9.63;;;;;;;;;;5094599;28;20050;-85
2022/06/02 04:11:24;;;;;;;16.35;9.18;;;;;;;;;;5111099;28;20395;-84
2022/06/02 04:14:05;;;;;;;17.88;9.43;;;;;;;;;;5094329;28;20035;-84
2022/06/02 04:16:34;;;;;;;15.95;9.23;;;;;;;;;;5093689;28;20096;-83
2022/06/02 04:22:05;;;;;;;15.73;9.70;;;;;;;;;;5111155;28;20051;-85
2022/06/02 04:24:50;;;;;;;14.30;9.48;;;;;;;;;;5094125;28;20054;-84
2022/06/02 04:27:23;;;;;;;14.93;8.73;;;;;;;;;;5094114;28;20043;-84
2022/06/02 04:29:52;;;;;;;16.85;9.90;;;;;;;;;;5094441;28;20044;-85
2022/06/02 04:32:32;;;;;;;15.70;9.43;;;;;;;;;;5094396;28;20032;-84
2022/06/02 04:35:06;;;;;;;14.63;9.00;;;;;;;;;;5094535;28;20378;-84
2022/06/02 04:37:38;;;;;;;14.95;8.98;;;;;;;;;;5093782;28;20435;-84
2022/06/02 04:40:10;;;;;;;13.68;8.68;;;;;;;;;;5093848;28;20116;-84
2022/06/02 04:42:40;;;;;;;16.63;8.10;;;;;;;;;;5093782;28;20206;-85
2022/06/02 04:45:25;;;;;;;15.57;8.98;;;;;;;;;;5093661;28;20380;-82
2022/06/02 04:48:10;;;;;;;15.40;8.52;;;;;;;;;;5110705;28;20035;-85
2022/06/02 04:50:39;;;;;;;15.45;9.07;;;;;;;;;;5093770;28;20032;-82
2022/06/02 04:53:10;;;;;;;12.02;8.02;;;;;;;;;;5093790;28;20514;-85
2022/06/02 04:55:39;;;;;;;13.65;7.85;;;;;;;;;;5094152;28;20092;-84
2022/06/02 04:58:14;;;;;;;14.85;8.25;;;;;;;;;;5093868;28;20130;-85
2022/06/02 05:00:43;;;;;;;13.48;7.75;;;;;;;;;;5093694;28;20036;-86
2022/06/02 05:03:15;;;;;;;11.50;7.78;;;;;;;;;;5093890;28;20043;-84
2022/06/02 05:05:49;;;;;;;12.90;6.13;;;;;;;;;;5093759;28;20132;-85
2022/06/02 05:08:29;;;;;;;10.25;6.38;;;;;;;;;;5093931;28;20077;-86
2022/06/02 05:10:55;;;;;;;7.50;5.50;;;;;;;;;;5093669;28;20042;-84
2022/06/02 05:13:53;;;;;;;9.10;5.65;;;;;;;;;;5093733;28;20127;-85
2022/06/02 05:16:19;;;;;;;8.70;5.75;;;;;;;;;;5060510;28;20047;-86
2022/06/02 05:19:15;;;;;;;6.70;4.85;;;;;;;;;;5093857;28;20130;-85
2022/06/02 05:21:43;;;;;;;6.68;5.07;;;;;;;;;;5040681;28;20052;-83
2022/06/02 05:24:12;;;;;;;6.55;4.95;;;;;;;;;;5093498;28;20590;-86
2022/06/02 05:26:57;;;;;;;7.10;4.90;;;;;;;;;;5093605;28;20414;-85
2022/06/02 05:29:29;;;;;;;7.47;5.47;;;;;;;;;;5095291;28;20043;-86
2022/06/02 05:32:04;;;;;;;5.57;4.97;;;;;;;;;;5097395;28;20067;-84
2022/06/02 05:34:43;;;;;;;8.85;5.28;;;;;;;;;;5097250;28;20047;-84
2022/06/02 05:37:21;;;;;;;7.20;5.53;;;;;;;;;;5097532;28;20150;-84
2022/06/02 05:40:04;;;;;;;6.18;4.85;;;;;;;;;;5114027;28;20067;-84
2022/06/02 05:42:33;;;;;;;5.13;4.60;;;;;;;;;;5097240;28;20396;-84
2022/06/02 05:45:17;;;;;;;6.60;4.78;;;;;;;;;;5097944;28;20115;-85
2022/06/02 05:47:47;;;;;;;7.00;4.75;;;;;;;;;;5097952;28;20399;-87
2022/06/02 05:50:19;;;;;;;6.20;4.15;;;;;;;;;;5097200;28;20028;-84
2022/06/02 05:52:48;;;;;;;5.88;3.60;;;;;;;;;;5097276;28;20036;-85
2022/06/02 05:55:17;;;;;;;5.60;4.55;;;;;;;;;;5097192;28;20039;-84
2022/06/02 05:57:58;;;;;;;4.47;4.03;;;;;;;;;;5097180;28;20080;-85
2022/06/02 06:00:27;;;;;;;4.97;4.28;;;;;;;;;;5097679;28;20368;-86
2022/06/02 06:02:53;;;;;;;4.38;3.97;;;;;;;;;;5096763;28;20136;-85
2022/06/02 06:05:25;;;;;;;5.22;4.72;;;;;;;;;;5096089;28;20468;-86
2022/06/02 06:08:06;;;;;;;5.68;5.25;;;;;;;;;;5097894;28;20032;-89
2022/06/02 06:10:32;;;;;;;6.68;5.18;;;;;;;;;;5095382;28;20031;-88
2022/06/02 06:13:17;;;;;;;5.05;4.57;;;;;;;;;;5099376;28;20039;-85
2022/06/02 06:15:52;;;;;;;5.15;4.68;;;;;;;;;;5094816;28;20038;-85
2022/06/02 06:18:30;;;;;;;4.68;4.28;;;;;;;;;;5094643;28;20397;-85
2022/06/02 06:21:08;;;;;;;4.97;4.47;;;;;;;;;;5113005;28;20043;-87
2022/06/02 06:23:57;;;;;;;4.60;4.20;;;;;;;;;;5095411;28;20042;-84
2022/06/02 06:26:46;;;;;;;4.45;3.80;;;;;;;;;;5095105;28;20573;-84
2022/06/02 06:29:31;;;;;;;3.92;3.63;;;;;;;;;;5088359;28;20069;-85
2022/06/02 06:32:08;;;;;;;3.70;3.40;;;;;;;;;;5097398;28;20078;-88
2022/06/02 06:34:34;;;;;;;3.00;2.70;;;;;;;;;;5098494;28;20044;-90
2022/06/02 06:37:32;;;;;;;3.75;3.20;;;;;;;;;;5098202;28;20398;-87
2022/06/02 06:39:58;;;;;;;2.97;2.70;;;;;;;;;;5064671;28;20063;-82
2022/06/02 06:42:27;;;;;;;2.83;2.63;;;;;;;;;;5115729;28;20099;-89
2022/06/02 06:45:11;;;;;;;4.32;2.83;;;;;;;;;;5098315;28;20128;-87
2022/06/02 06:47:41;;;;;;;2.35;2.15;;;;;;;;;;5097981;28;20044;-87
2022/06/02 06:50:20;;;;;;;2.45;2.28;;;;;;;;;;5097922;28;20039;-85
2022/06/02 06:53:19;;;;;;;2.33;2.10;;;;;;;;;;5098855;28;20062;-88
2022/06/02 06:55:51;;;;;;;2.40;2.17;;;;;;;;;;5064947;28;20051;-91
2022/06/02 06:58:20;;;;;;;2.65;2.13;;;;;;;;;;5097626;28;20048;-90
2022/06/02 07:01:04;;;;;;;2.90;2.40;;;;;;;;;;5114752;28;20050;-85
2022/06/02 07:03:33;;;;;;;2.10;1.90;;;;;;;;;;5097973;28;20360;-88
2022/06/02 07:06:07;;;;;;;2.83;2.03;;;;;;;;;;5096602;28;20043;-80
2022/06/02 07:08:34;;;;;;;2.60;2.00;;;;;;;;;;5095838;28;20495;-85
2022/06/02 07:12:50;;;;;;;2.20;2.00;;;;;;;;;;5097606;28;20039;-89
2022/06/02 07:14:17;;;;;;;2.60;2.40;;;;;;;;;;5113178;28;20058;-83
2022/06/02 07:16:46;;;;;;;2.50;2.15;;;;;;;;;;5097908;28;20054;-89
2022/06/02 07:19:24;;;;;;;2.40;2.17;;;;;;;;;;5097168;28;20038;-85
2022/06/02 07:21:53;;;;;;;2.20;1.80;;;;;;;;;;5095318;28;20393;-85
2022/06/02 07:24:25;;;;;;;2.42;2.00;;;;;;;;;;5096117;28;20115;-87
2022/06/02 07:27:07;;;;;;;2.38;1.80;;;;;;;;;;5094386;28;20569;-84
2022/06/02 07:29:39;;;;;;;3.55;2.08;;;;;;;;;;5094216;28;20118;-83
2022/06/02 07:32:20;;;;;;;2.35;2.13;;;;;;;;;;5114364;28;20036;-87
2022/06/02 07:35:05;;;;;;;3.53;2.25;;;;;;;;;;5094512;28;20499;-87
2022/06/02 07:37:40;;;;;;;2.70;1.88;;;;;;;;;;5096275;28;20043;-83
2022/06/02 07:40:18;;;;;;;2.63;2.10;;;;;;;;;;5095789;28;20135;-84
2022/06/02 07:43:03;;;;;;;2.30;2.00;;;;;;;;;;5096553;28;20053;-84
2022/06/02 07:45:48;;;;;;;1.63;1.52;;;;;;;;;;5093940;28;20039;-85
2022/06/02 07:48:23;;;;;;;2.38;1.90;;;;;;;;;;5095085;28;20128;-85
2022/06/02 07:50:55;;;;;;;2.25;1.98;;;;;;;;;;5093635;28;20130;-83
2022/06/02 07:53:31;;;;;;;3.33;2.17;;;;;;;;;;5095553;28;20031;-86
2022/06/02 07:56:00;;;;;;;2.90;2.00;;;;;;;;;;5096675;28;20459;-84
2022/06/02 07:58:32;;;;;;;3.05;2.20;;;;;;;;;;5093953;28;20050;-82
2022/06/02 08:01:04;;;;;;;2.25;2.05;;;;;;;;;;5096226;28;20046;-85
2022/06/02 08:03:48;;;;;;;2.20;2.10;;;;;;;;;;5094935;28;20040;-86
2022/06/02 08:06:14;;;;;;;3.03;1.98;;;;;;;;;;5094542;28;20119;-87
2022/06/02 08:08:49;;;;;;;2.30;2.08;;;;;;;;;;5095891;28;20071;-90
2022/06/02 08:11:23;;;;;;;2.50;1.98;;;;;;;;;;5094469;28;20073;-85
2022/06/02 08:13:49;;;;;;;1.98;1.75;;;;;;;;;;5094671;28;20122;-89
2022/06/02 08:16:28;;;;;;;1.88;1.77;;;;;;;;;;5096071;28;20507;-87
2022/06/02 08:18:54;;;;;;;1.85;1.70;;;;;;;;;;5093701;28;20043;-86
2022/06/02 08:21:27;;;;;;;2.28;1.52;;;;;;;;;;5095922;28;20126;-82
2022/06/02 08:24:09;;;;;;;2.63;2.05;;;;;;;;;;5111239;28;20043;-87
2022/06/02 08:26:44;;;;;;;2.30;1.80;;;;;;;;;;5089747;28;20047;-85
2022/06/02 08:29:13;;;;;;;5.10;2.15;;;;;;;;;;5090227;28;20040;-88
2022/06/02 08:31:52;;;;;;;2.00;1.90;;;;;;;;;;5092243;28;20039;-91
2022/06/02 08:34:21;;;;;;;3.72;1.88;;;;;;;;;;5092374;28;20280;-88
2022/06/02 08:36:53;;;;;;;2.75;2.20;;;;;;;;;;5088862;28;20119;-87
2022/06/02 08:39:46;;;;;;;3.17;2.00;;;;;;;;;;5090739;28;20031;-85
2022/06/02 08:42:22;;;;;;;2.08;1.95;;;;;;;;;;5092296;28;20039;-87
2022/06/02 08:45:07;;;;;;;2.35;1.77;;;;;;;;;;5094065;28;20040;-82
2022/06/02 08:47:39;;;;;;;2.50;1.70;;;;;;;;;;5092649;28;20153;-88
2022/06/02 08:50:25;;;;;;;2.30;2.10;;;;;;;;;;5108489;28;20499;-84
2022/06/02 08:53:09;;;;;;;2.88;1.88;;;;;;;;;;5092799;28;20063;-86
2022/06/02 08:55:59;;;;;;;4.15;2.10;;;;;;;;;;5109970;28;20048;-85
2022/06/02 08:58:37;;;;;;;2.38;1.92;;;;;;;;;;5093068;28;20106;-88
2022/06/02 09:01:12;;;;;;;3.08;2.10;;;;;;;;;;5093240;28;20058;-81
2022/06/02 09:03:38;;;;;;;2.08;1.65;;;;;;;;;;5095666;28;20039;-86
2022/06/02 09:06:04;;;;;;;3.35;1.90;;;;;;;;;;5096149;28;20485;-86
2022/06/02 09:08:39;;;;;;;1.90;1.80;;;;;;;;;;5094749;28;20035;-83
2022/06/02 09:11:11;;;;;;;2.00;1.80;;;;;;;;;;5112529;28;20053;-86
2022/06/02 09:13:43;;;;;;;2.45;2.25;;;;;;;;;;5113795;28;20040;-90
2022/06/02 09:16:23;;;;;;;3.75;2.10;;;;;;;;;;5096070;28;20498;-83
2022/06/02 09:19:08;;;;;;;1.70;1.60;;;;;;;;;;5095368;28;20039;-81
2022/06/02 09:21:46;;;;;;;2.17;1.98;;;;;;;;;;5097711;28;20394;-85
2022/06/02 09:24:23;;;;;;;2.78;2.35;;;;;;;;;;5096314;28;20093;-84
2022/06/02 09:26:59;;;;;;;3.40;1.95;;;;;;;;;;5095598;28;20131;-83
2022/06/02 09:29:43;;;;;;;2.20;2.00;;;;;;;;;;5094968;28;20047;-86
2022/06/02 09:32:29;;;;;;;2.63;1.67;;;;;;;;;;5094647;28;20520;-85
2022/06/02 09:35:10;;;;;;;2.55;1.60;;;;;;;;;;5094912;28;20522;-83
2022/06/02 09:37:39;;;;;;;1.83;1.42;;;;;;;;;;5095062;28;20036;-85
2022/06/02 09:40:14;;;;;;;1.95;1.58;;;;;;;;;;5094918;28;20527;-85
2022/06/02 09:42:52;;;;;;;2.90;2.30;;;;;;;;;;5111341;28;20055;-85
2022/06/02 09:45:39;;;;;;;2.65;1.52;;;;;;;;;;5094004;28;20048;-84
2022/06/02 09:48:23;;;;;;;3.22;2.13;;;;;;;;;;5095994;28;20503;-87
2022/06/02 09:51:10;;;;;;;3.97;2.40;;;;;;;;;;5096522;28;20457;-86
2022/06/02 09:53:56;;;;;;;3.45;2.22;;;;;;;;;;5093216;28;20055;-86
2022/06/02 09:56:25;;;;;;;1.65;1.50;;;;;;;;;;5094348;28;20046;-84
2022/06/02 09:59:13;;;;;;;1.60;1.50;;;;;;;;;;5094682;28;20036;-84
2022/06/02 10:01:40;;;;;;;1.98;1.45;;;;;;;;;;5111257;28;20106;-87
2022/06/02 10:04:06;;;;;;;3.25;1.40;;;;;;;;;;5093382;28;20166;-86
2022/06/02 10:06:57;;;;;;;2.75;2.00;;;;;;;;;;5092991;28;20126;-85
2022/06/02 10:09:39;;;;;;;3.08;1.83;;;;;;;;;;5111351;28;20394;-85
2022/06/02 10:15:09;;;;;;;2.00;1.80;;;;;;;;;;5072259;28;20059;-83
2022/06/02 10:17:44;;;;;;;2.28;1.40;;;;;;;;;;5095140;28;20066;-85
2022/06/02 10:20:10;;;;;;;2.47;1.58;;;;;;;;;;5095623;28;20122;-86
2022/06/02 10:22:59;;;;;;;2.15;1.95;;;;;;;;;;5093397;28;20047;-87
2022/06/02 10:25:34;;;;;;;1.83;1.67;;;;;;;;;;5092943;28;20055;-86
2022/06/02 10:28:10;;;;;;;2.15;1.52;;;;;;;;;;5093575;28;20089;-85
2022/06/02 10:30:55;;;;;;;2.25;1.90;;;;;;;;;;5095178;28;20089;-84
2022/06/02 10:33:40;;;;;;;1.73;1.55;;;;;;;;;;5094491;28;20429;-83
2022/06/02 10:36:06;;;;;;;1.63;1.52;;;;;;;;;;5094342;28;20117;-84
2022/06/02 10:38:38;;;;;;;2.72;1.55;;;;;;;;;;5094980;28;20065;-85
2022/06/02 10:41:13;;;;;;;1.50;1.40;;;;;;;;;;5095221;28;20058;-85
2022/06/02 10:43:39;;;;;;;2.00;1.67;;;;;;;;;;5094726;28;20046;-83
2022/06/02 10:46:33;;;;;;;1.98;1.40;;;;;;;;;;5092936;28;20495;-85
2022/06/02 10:49:18;;;;;;;2.65;1.38;;;;;;;;;;5093211;28;20040;-83
2022/06/02 10:51:45;;;;;;;1.73;1.42;;;;;;;;;;5095409;28;20411;-85
2022/06/02 10:54:32;;;;;;;4.38;1.52;;;;;;;;;;5093095;28;20077;-87
2022/06/02 10:57:18;;;;;;;1.55;1.33;;;;;;;;;;5093205;28;20046;-84
2022/06/02 10:59:47;;;;;;;1.35;1.25;;;;;;;;;;5093738;28;20075;-84
2022/06/02 11:02:39;;;;;;;1.55;1.45;;;;;;;;;;5096423;28;20043;-81
2022/06/02 11:05:15;;;;;;;2.70;1.38;;;;;;;;;;5094926;28;20043;-88
2022/06/02 11:08:00;;;;;;;2.03;1.50;;;;;;;;;;5094522;28;20031;-89
2022/06/02 11:10:26;;;;;;;1.88;1.60;;;;;;;;;;5111295;28;20036;-83
2022/06/02 11:12:58;;;;;;;1.70;1.50;;;;;;;;;;5114131;28;20605;-83
2022/06/02 11:15:33;;;;;;;4.93;1.92;;;;;;;;;;5094480;28;20122;-84
2022/06/02 11:18:02;;;;;;;1.92;1.50;;;;;;;;;;5094531;28;20093;-87
2022/06/02 11:20:28;;;;;;;2.00;1.80;;;;;;;;;;5097362;28;20039;-84
2022/06/02 11:22:57;;;;;;;2.22;1.88;;;;;;;;;;5095181;28;20096;-86
2022/06/02 11:25:35;;;;;;;1.83;1.30;;;;;;;;;;5095897;28;20039;-81
2022/06/02 11:28:01;;;;;;;1.50;1.40;;;;;;;;;;5109532;28;20047;-84
2022/06/02 11:30:47;;;;;;;2.50;1.42;;;;;;;;;;5095421;28;20047;-86
2022/06/02 11:33:28;;;;;;;2.67;1.92;;;;;;;;;;5095901;28;20075;-88
2022/06/02 11:36:03;;;;;;;2.00;1.73;;;;;;;;;;5097160;28;20042;-81
2022/06/02 11:38:56;;;;;;;1.88;1.50;;;;;;;;;;5096952;28;20062;-85
2022/06/02 11:41:22;;;;;;;2.03;1.50;;;;;;;;;;5112845;28;20513;-83
2022/06/02 11:43:57;;;;;;;3.90;1.92;;;;;;;;;;5095689;28;20091;-84
2022/06/02 11:46:25;;;;;;;1.95;1.58;;;;;;;;;;5111182;28;20039;-90
2022/06/02 11:49:10;;;;;;;2.67;1.77;;;;;;;;;;5111714;28;20074;-84
2022/06/02 11:52:01;;;;;;;2.42;1.70;;;;;;;;;;5093819;28;20043;-83
2022/06/02 11:54:53;;;;;;;1.92;1.60;;;;;;;;;;5110718;28;20035;-83
2022/06/02 11:57:22;;;;;;;2.92;1.70;;;;;;;;;;5091222;28;20502;-86
2022/06/02 12:00:02;;;;;;;2.42;1.92;;;;;;;;;;5093609;28;20047;-86
2022/06/02 12:02:31;;;;;;;2.25;1.55;;;;;;;;;;5109798;28;20032;-85
2022/06/02 12:05:04;;;;;;;1.90;1.55;;;;;;;;;;5093771;28;20043;-86
2022/06/02 12:07:40;;;;;;;1.73;1.63;;;;;;;;;;5093832;28;20044;-86
2022/06/02 12:10:22;;;;;;;2.63;1.70;;;;;;;;;;5092315;28;20047;-83
2022/06/02 12:12:57;;;;;;;1.70;1.50;;;;;;;;;;5094561;28;20039;-87
2022/06/02 12:15:29;;;;;;;2.65;1.63;;;;;;;;;;5093169;28;20035;-84
2022/06/02 12:17:55;;;;;;;2.28;1.95;;;;;;;;;;5094499;28;20039;-88
2022/06/02 12:20:40;;;;;;;2.88;2.20;;;;;;;;;;5093852;28;20088;-86
2022/06/02 12:23:13;;;;;;;2.13;1.92;;;;;;;;;;5091800;28;20031;-82
2022/06/02 12:25:42;;;;;;;2.00;1.77;;;;;;;;;;5090443;28;20206;-86
2022/06/02 12:28:37;;;;;;;2.30;1.65;;;;;;;;;;5093247;28;20066;-86
2022/06/02 12:31:12;;;;;;;1.95;1.58;;;;;;;;;;5079382;28;20079;-88
2022/06/02 12:33:57;;;;;;;1.60;1.50;;;;;;;;;;5091005;28;20043;-87
2022/06/02 12:36:34;;;;;;;1.85;1.73;;;;;;;;;;5091086;28;20035;-86
2022/06/02 12:39:09;;;;;;;3.05;1.70;;;;;;;;;;5092048;28;20035;-86
2022/06/02 12:41:54;;;;;;;3.00;1.60;;;;;;;;;;5093634;28;20384;-84
2022/06/02 12:44:20;;;;;;;2.08;1.88;;;;;;;;;;5107436;28;20073;-85
2022/06/02 12:46:55;;;;;;;3.08;1.75;;;;;;;;;;5093945;28;20127;-86
2022/06/02 12:49:25;;;;;;;1.70;1.60;;;;;;;;;;5091707;28;20051;-86
2022/06/02 12:51:53;;;;;;;2.75;1.70;;;;;;;;;;5096083;28;20059;-86
2022/06/02 12:54:47;;;;;;;1.88;1.52;;;;;;;;;;5098577;28;20058;-83
2022/06/02 12:57:19;;;;;;;3.88;2.03;;;;;;;;;;5099558;28;20035;-84
2022/06/02 13:00:14;;;;;;;2.00;1.90;;;;;;;;;;5095366;28;20392;-85
2022/06/02 13:03:15;;;;;;;2.30;1.90;;;;;;;;;;5084493;28;20032;-84
2022/06/02 13:05:56;;;;;;;2.72;1.73;;;;;;;;;;5055470;28;20068;-85
2022/06/02 13:08:41;;;;;;;4.47;2.10;;;;;;;;;;5073197;28;20406;-87
2022/06/02 13:11:13;;;;;;;3.42;2.00;;;;;;;;;;5092642;28;20040;-86
2022/06/02 13:13:48;;;;;;;3.28;2.03;;;;;;;;;;5096596;28;20067;-85
2022/06/02 13:16:34;;;;;;;1.90;1.75;;;;;;;;;;5096841;28;20039;-86
2022/06/02 13:19:11;;;;;;;1.67;1.58;;;;;;;;;;5066126;28;20043;-83
2022/06/02 13:21:43;;;;;;;3.08;1.80;;;;;;;;;;5096635;28;20808;-82
2022/06/02 13:24:28;;;;;;;2.08;1.88;;;;;;;;;;5096935;28;20479;-84
2022/06/02 13:26:54;;;;;;;3.10;1.70;;;;;;;;;;5113328;28;20050;-84
2022/06/02 13:29:26;;;;;;;2.42;1.85;;;;;;;;;;5111660;28;20039;-81
2022/06/02 13:32:11;;;;;;;2.55;1.90;;;;;;;;;;5095092;28;20494;-85
2022/06/02 13:34:56;;;;;;;2.20;1.90;;;;;;;;;;5095404;28;20071;-87
2022/06/02 13:37:25;;;;;;;1.80;1.50;;;;;;;;;;5093049;28;20036;-83
2022/06/02 13:40:02;;;;;;;2.22;1.70;;;;;;;;;;5094097;28;20051;-85
2022/06/02 13:42:47;;;;;;;1.85;1.67;;;;;;;;;;5089470;28;20036;-85
2022/06/02 13:45:26;;;;;;;4.38;1.80;;;;;;;;;;5090533;28;20040;-85
2022/06/02 13:47:58;;;;;;;2.85;1.95;;;;;;;;;;5090894;28;20039;-87
2022/06/02 13:50:43;;;;;;;6.00;1.92;;;;;;;;;;5087906;28;20434;-84
2022/06/02 13:53:21;;;;;;;1.90;1.55;;;;;;;;;;5093765;28;20036;-85
2022/06/02 13:58:41;;;;;;;1.77;1.65;;;;;;;;;;5113234;28;20139;-86
2022/06/02 14:01:37;;;;;;;2.28;1.63;;;;;;;;;;5094696;28;20128;-86
2022/06/02 14:04:21;;;;;;;1.90;1.70;;;;;;;;;;5081016;28;20047;-84
2022/06/02 14:06:52;;;;;;;1.90;1.30;;;;;;;;;;5092978;28;20044;-87
2022/06/02 14:09:30;;;;;;;1.75;1.60;;;;;;;;;;5112570;28;20039;-86
2022/06/02 14:12:02;;;;;;;3.28;2.00;;;;;;;;;;5094237;28;20134;-84
2022/06/02 14:14:28;;;;;;;2.00;1.65;;;;;;;;;;5111743;28;20066;-84
2022/06/02 14:17:07;;;;;;;1.92;1.83;;;;;;;;;;5096115;28;20044;-84
2022/06/02 14:19:42;;;;;;;2.53;1.90;;;;;;;;;;5112912;28;20035;-85
2022/06/02 14:22:26;;;;;;;3.08;2.05;;;;;;;;;;5094319;28;20038;-83
2022/06/02 14:25:11;;;;;;;2.65;1.77;;;;;;;;;;5112731;28;20051;-87
2022/06/02 14:27:56;;;;;;;2.88;1.70;;;;;;;;;;5097979;28;20044;-87
2022/06/02 14:30:45;;;;;;;3.50;1.98;;;;;;;;;;5098591;28;20032;-88
2022/06/02 14:33:16;;;;;;;3.10;1.83;;;;;;;;;;5070154;28;20065;-86
2022/06/02 14:35:46;;;;;;;1.85;1.42;;;;;;;;;;5096880;28;20043;-84
2022/06/02 14:38:31;;;;;;;2.38;1.80;;;;;;;;;;5096111;28;20060;-86
2022/06/02 14:41:07;;;;;;;2.60;1.70;;;;;;;;;;5096010;28;20062;-85
2022/06/02 14:43:38;;;;;;;3.15;1.60;;;;;;;;;;5113049;28;20074;-86
2022/06/02 14:46:11;;;;;;;1.92;1.65;;;;;;;;;;5096495;28;20075;-87
2022/06/02 14:48:46;;;;;;;3.17;1.70;;;;;;;;;;5095789;28;20042;-86
2022/06/02 14:51:28;;;;;;;1.92;1.50;;;;;;;;;;5096039;28;20069;-85
2022/06/02 14:54:09;;;;;;;3.28;1.67;;;;;;;;;;5096116;28;20028;-86
2022/06/02 14:56:38;;;;;;;3.92;1.85;;;;;;;;;;5095973;28;20039;-85
2022/06/02 14:59:17;;;;;;;3.20;2.30;;;;;;;;;;5097150;28;20040;-87
2022/06/02 15:01:57;;;;;;;2.33;1.98;;;;;;;;;;5097148;28;20521;-88
2022/06/02 15:04:41;;;;;;;2.40;1.85;;;;;;;;;;5113697;28;20040;-87
2022/06/02 15:07:26;;;;;;;2.63;1.90;;;;;;;;;;5095865;28;20491;-85
2022/06/02 15:09:52;;;;;;;2.42;1.50;;;;;;;;;;5096678;28;20063;-85
2022/06/02 15:12:48;;;;;;;2.17;1.75;;;;;;;;;;5097034;28;20036;-85
2022/06/02 15:15:33;;;;;;;3.50;2.05;;;;;;;;;;5044913;28;20063;-86
2022/06/02 15:18:14;;;;;;;2.67;1.73;;;;;;;;;;5097317;28;20043;-85
2022/06/02 15:20:52;;;;;;;3.65;1.75;;;;;;;;;;5096852;28;20074;-83
2022/06/02 15:23:39;;;;;;;2.28;2.08;;;;;;;;;;5113814;28;20421;-87
2022/06/02 15:26:23;;;;;;;2.42;1.88;;;;;;;;;;5097105;28;20126;-83
2022/06/02 15:29:02;;;;;;;3.47;2.00;;;;;;;;;;5115161;28;20046;-85
2022/06/02 15:31:54;;;;;;;1.63;1.42;;;;;;;;;;5093993;28;20135;-87
2022/06/02 15:34:35;;;;;;;4.55;2.38;;;;;;;;;;5072206;28;20048;-84
2022/06/02 15:37:37;;;;;;;2.50;1.98;;;;;;;;;;5092564;28;20061;-85
2022/06/02 15:40:11;;;;;;;2.13;1.98;;;;;;;;;;5033637;28;20134;-88
2022/06/02 15:42:38;;;;;;;1.63;1.52;;;;;;;;;;5084746;28;20043;-86
2022/06/02 15:45:14;;;;;;;1.95;1.75;;;;;;;;;;5094954;28;20051;-91
2022/06/02 15:47:56;;;;;;;3.25;2.05;;;;;;;;;;5092833;28;20040;-85